createdAt,value
2018-07-19T00:00:38.140Z,97072.13
2018-07-19T00:03:05.603Z,97075.53
2018-07-19T00:05:33.044Z,97080.48
2018-07-19T00:08:00.562Z,97082.39
2018-07-19T00:10:28.019Z,97079.51
2018-07-19T00:12:55.454Z,97078.62
2018-07-19T00:15:22.872Z,97087.60
2018-07-19T00:17:50.357Z,97090.71
2018-07-19T00:20:17.785Z,97087.47
2018-07-19T00:22:45.265Z,97094.38
2018-07-19T00:25:12.734Z,97096.35
2018-07-19T00:27:40.213Z,97100.64
2018-07-19T00:30:07.682Z,97100.33
2018-07-19T00:32:35.142Z,97107.67
2018-07-19T00:35:02.599Z,97100.42
2018-07-19T00:37:30.098Z,97103.41
2018-07-19T00:39:57.614Z,97108.16
2018-07-19T00:42:25.049Z,97107.95
2018-07-19T00:44:52.564Z,97108.74
2018-07-19T00:47:20.041Z,97111.47
2018-07-19T00:49:47.488Z,97109.06
2018-07-19T00:52:14.967Z,97106.45
2018-07-19T00:54:42.413Z,97101.75
2018-07-19T00:57:09.908Z,97099.14
2018-07-19T00:59:37.365Z,97098.83
2018-07-19T01:02:04.859Z,97099.34
2018-07-19T01:04:32.368Z,97094.22
2018-07-19T01:06:59.957Z,97101.92
2018-07-19T01:09:28.116Z,97102.68
2018-07-19T01:11:55.615Z,97099.00
2018-07-19T01:14:23.136Z,97098.31
2018-07-19T01:16:50.625Z,97089.55
2018-07-19T01:19:18.116Z,97100.08
2018-07-19T01:21:46.529Z,97097.26
2018-07-19T01:24:13.985Z,97092.55
2018-07-19T01:26:41.505Z,97091.02
2018-07-19T01:29:09.039Z,97098.92
2018-07-19T01:31:36.492Z,97095.83
2018-07-19T01:34:04.005Z,97098.58
2018-07-19T01:36:31.508Z,97100.01
2018-07-19T01:38:58.947Z,97103.41
2018-07-19T01:41:26.552Z,97106.22
2018-07-19T01:43:54.006Z,97102.55
2018-07-19T01:46:21.467Z,97102.27
2018-07-19T01:48:48.942Z,97096.81
2018-07-19T01:51:16.404Z,97093.34
2018-07-19T01:53:43.868Z,97098.38
2018-07-19T01:56:11.321Z,97095.22
2018-07-19T01:58:38.761Z,97094.64
2018-07-19T02:01:06.237Z,97084.48
2018-07-19T02:03:33.713Z,97091.59
2018-07-19T02:06:01.171Z,97087.53
2018-07-19T02:08:28.658Z,97093.98
2018-07-19T02:10:56.079Z,97085.56
2018-07-19T02:13:23.496Z,97082.44
2018-07-19T02:15:50.963Z,97078.76
2018-07-19T02:18:18.399Z,97074.70
2018-07-19T02:20:45.980Z,97068.18
2018-07-19T02:23:13.478Z,97072.03
2018-07-19T02:25:41.000Z,97077.61
2018-07-19T02:28:08.463Z,97073.81
2018-07-19T02:30:36.040Z,97073.87
2018-07-19T02:33:03.495Z,97078.98
2018-07-19T02:35:30.965Z,97081.00
2018-07-19T02:37:58.514Z,97082.44
2018-07-19T02:40:26.387Z,97076.16
2018-07-19T02:42:53.962Z,97083.27
2018-07-19T02:45:21.622Z,97075.79
2018-07-19T02:47:49.083Z,97076.16
2018-07-19T02:50:16.507Z,97070.17
2018-07-19T02:52:44.426Z,97078.71
2018-07-19T02:55:11.998Z,97078.16
2018-07-19T02:57:40.024Z,97083.09
2018-07-19T03:00:07.475Z,97072.88
2018-07-19T03:02:34.922Z,97075.79
2018-07-19T03:05:02.395Z,97081.41
2018-07-19T03:07:29.873Z,97082.80
2018-07-19T03:09:57.344Z,97070.56
2018-07-19T03:12:24.843Z,97069.59
2018-07-19T03:14:52.457Z,97075.73
2018-07-19T03:17:19.913Z,97077.36
2018-07-19T03:19:47.349Z,97079.63
2018-07-19T03:22:14.840Z,97077.00
2018-07-19T03:24:42.337Z,97078.47
2018-07-19T03:27:09.793Z,97078.98
2018-07-19T03:29:37.399Z,97082.76
2018-07-19T03:32:04.882Z,97081.20
2018-07-19T03:34:32.327Z,97083.89
2018-07-19T03:36:59.769Z,97086.11
2018-07-19T03:39:27.214Z,97080.95
2018-07-19T03:41:54.661Z,97077.41
2018-07-19T03:44:22.085Z,97076.60
2018-07-19T03:46:49.542Z,97078.92
2018-07-19T03:49:16.991Z,97082.03
2018-07-19T03:51:44.473Z,97074.78
2018-07-19T03:54:12.029Z,97074.31
2018-07-19T03:56:39.525Z,97075.76
2018-07-19T03:59:06.965Z,97075.08
2018-07-19T04:01:34.376Z,97076.56
2018-07-19T04:04:01.875Z,97075.90
2018-07-19T04:06:29.315Z,97073.69
2018-07-19T04:08:56.797Z,97081.08
2018-07-19T04:11:24.221Z,97076.39
2018-07-19T04:13:51.660Z,97076.00
2018-07-19T04:16:19.128Z,97079.95
2018-07-19T04:18:46.571Z,97077.80
2018-07-19T04:21:14.050Z,97080.38
2018-07-19T04:23:41.544Z,97078.68
2018-07-19T04:26:09.035Z,97076.38
2018-07-19T04:28:36.493Z,97071.61
2018-07-19T04:31:04.010Z,97083.65
2018-07-19T04:33:31.452Z,97091.91
2018-07-19T04:35:58.890Z,97090.41
2018-07-19T04:38:26.441Z,97097.66
2018-07-19T04:40:54.001Z,97090.82
2018-07-19T04:43:21.459Z,97098.68
2018-07-19T04:45:48.957Z,97097.97
2018-07-19T04:48:16.439Z,97097.87
2018-07-19T04:50:44.160Z,97094.00
2018-07-19T04:53:11.626Z,97102.68
2018-07-19T04:55:39.123Z,97098.05
2018-07-19T04:58:07.156Z,97101.45
2018-07-19T05:00:34.603Z,97102.55
2018-07-19T05:03:02.109Z,97104.17
2018-07-19T05:05:29.579Z,97100.36
2018-07-19T05:07:57.050Z,97107.06
2018-07-19T05:10:24.534Z,97107.45
2018-07-19T05:12:52.070Z,97106.66
2018-07-19T05:15:19.594Z,97118.87
2018-07-19T05:17:47.045Z,97114.94
2018-07-19T05:20:14.507Z,97110.53
2018-07-19T05:22:42.028Z,97116.95
2018-07-19T05:25:09.699Z,97121.67
2018-07-19T05:27:37.249Z,97117.52
2018-07-19T05:30:04.868Z,97121.67
2018-07-19T05:32:33.134Z,97119.80
2018-07-19T05:35:00.580Z,97124.91
2018-07-19T05:37:28.091Z,97116.64
2018-07-19T05:39:55.610Z,97121.52
2018-07-19T05:42:23.119Z,97123.09
2018-07-19T05:44:50.624Z,97122.58
2018-07-19T05:47:18.087Z,97124.65
2018-07-19T05:49:45.579Z,97125.26
2018-07-19T05:52:13.012Z,97124.61
2018-07-19T05:54:40.473Z,97121.55
2018-07-19T05:57:07.970Z,97126.23
2018-07-19T05:59:35.476Z,97127.29
2018-07-19T06:02:02.926Z,97126.54
2018-07-19T06:04:30.401Z,97116.71
2018-07-19T06:06:57.844Z,97123.03
2018-07-19T06:09:25.948Z,97119.39
2018-07-19T06:11:53.359Z,97116.02
2018-07-19T06:14:20.868Z,97120.05
2018-07-19T06:16:48.433Z,97121.55
2018-07-19T06:19:15.916Z,97129.34
2018-07-19T06:21:43.821Z,97128.48
2018-07-19T06:24:11.294Z,97128.03
2018-07-19T06:26:38.760Z,97126.03
2018-07-19T06:29:07.020Z,97125.59
2018-07-19T06:31:34.570Z,97124.31
2018-07-19T06:34:02.059Z,97124.81
2018-07-19T06:36:29.775Z,97124.66
2018-07-19T06:38:57.246Z,97123.09
2018-07-19T06:41:24.745Z,97114.64
2018-07-19T06:43:52.190Z,97118.23
2018-07-19T06:46:19.643Z,97118.78
2018-07-19T06:48:47.138Z,97123.69
2018-07-19T06:51:14.635Z,97121.34
2018-07-19T06:53:42.051Z,97113.92
2018-07-19T06:56:09.477Z,97123.14
2018-07-19T06:58:36.962Z,97118.69
2018-07-19T07:01:04.502Z,97114.27
2018-07-19T07:03:32.173Z,97117.04
2018-07-19T07:05:59.545Z,97126.09
2018-07-19T07:08:26.994Z,97119.61
2018-07-19T07:10:54.545Z,97121.81
2018-07-19T07:13:22.308Z,97117.55
2018-07-19T07:15:49.775Z,97120.65
2018-07-19T07:18:17.266Z,97120.81
2018-07-19T07:20:44.818Z,97117.74
2018-07-19T07:23:12.251Z,97123.72
2018-07-19T07:25:39.761Z,97120.36
2018-07-19T07:28:07.453Z,97112.92
2018-07-19T07:30:35.028Z,97122.10
2018-07-19T07:33:02.508Z,97122.53
2018-07-19T07:35:30.033Z,97121.98
2018-07-19T07:37:58.496Z,97115.88
2018-07-19T07:40:25.936Z,97114.20
2018-07-19T07:42:53.398Z,97119.19
2018-07-19T07:45:20.838Z,97121.18
2018-07-19T07:47:48.318Z,97115.91
2018-07-19T07:50:15.817Z,97118.95
2018-07-19T07:52:43.340Z,97119.09
2018-07-19T07:55:10.922Z,97122.59
2018-07-19T07:57:38.327Z,97112.79
2018-07-19T08:00:05.747Z,97112.13
2018-07-19T08:02:33.355Z,97107.66
2018-07-19T08:05:00.870Z,97112.78
2018-07-19T08:07:28.371Z,97102.72
2018-07-19T08:09:55.856Z,97106.52
2018-07-19T08:12:23.382Z,97107.33
2018-07-19T08:14:50.812Z,97104.97
2018-07-19T08:17:18.313Z,97103.39
2018-07-19T08:19:45.836Z,97100.25
2018-07-19T08:22:13.296Z,97100.94
2018-07-19T08:24:40.846Z,97103.72
2018-07-19T08:27:08.464Z,97096.61
2018-07-19T08:29:35.990Z,97100.75
2018-07-19T08:32:03.463Z,97104.98
2018-07-19T08:34:30.952Z,97107.05
2018-07-19T08:36:58.459Z,97105.14
2018-07-19T08:39:26.112Z,97100.84
2018-07-19T08:41:54.162Z,97100.55
2018-07-19T08:44:21.600Z,97104.05
2018-07-19T08:46:49.109Z,97104.08
2018-07-19T08:49:16.584Z,97101.55
2018-07-19T08:51:44.182Z,97110.89
2018-07-19T08:54:11.655Z,97104.22
2018-07-19T08:56:39.200Z,97097.73
2018-07-19T08:59:06.635Z,97099.13
2018-07-19T09:01:34.109Z,97105.08
2018-07-19T09:04:01.698Z,97106.86
2018-07-19T09:06:29.186Z,97100.76
2018-07-19T09:08:57.245Z,97090.97
2018-07-19T09:11:24.808Z,97097.09
2018-07-19T09:13:52.328Z,97096.24
2018-07-19T09:16:19.847Z,97096.65
2018-07-19T09:18:47.290Z,97089.63
2018-07-19T09:21:14.799Z,97094.56
2018-07-19T09:23:42.363Z,97091.86
2018-07-19T09:26:09.802Z,97092.54
2018-07-19T09:28:37.343Z,97085.96
2018-07-19T09:31:04.863Z,97090.37
2018-07-19T09:33:33.125Z,97089.70
2018-07-19T09:36:00.599Z,97093.09
2018-07-19T09:38:28.192Z,97086.22
2018-07-19T09:40:55.691Z,97080.81
2018-07-19T09:43:23.212Z,97080.94
2018-07-19T09:45:50.695Z,97086.44
2018-07-19T09:48:18.166Z,97088.02
2018-07-19T09:50:45.725Z,97087.14
2018-07-19T09:53:12.776Z,97078.87
2018-07-19T09:55:40.158Z,97079.48
2018-07-19T09:58:07.244Z,97076.14
2018-07-19T10:00:34.879Z,97071.50
2018-07-19T10:03:01.992Z,97068.55
2018-07-19T10:05:29.104Z,97073.83
2018-07-19T10:07:56.135Z,97065.77
2018-07-19T10:10:23.123Z,97067.67
2018-07-19T10:12:50.605Z,97066.32
2018-07-19T10:15:17.697Z,97066.21
2018-07-19T10:17:45.296Z,97059.44
2018-07-19T10:20:12.896Z,97065.22
2018-07-19T10:22:40.443Z,97058.81
2018-07-19T10:25:07.971Z,97062.32
2018-07-19T10:27:35.572Z,97059.04
2018-07-19T10:30:03.926Z,97061.09
2018-07-19T10:32:32.050Z,97059.34
2018-07-19T10:34:59.403Z,97065.48
2018-07-19T10:37:26.937Z,97061.06
2018-07-19T10:39:54.389Z,97061.70
2018-07-19T10:42:21.881Z,97056.65
2018-07-19T10:44:49.467Z,97058.66
2018-07-19T10:47:16.949Z,97058.20
2018-07-19T10:49:44.482Z,97055.75
2018-07-19T10:52:12.250Z,97057.15
2018-07-19T10:54:39.847Z,97057.38
2018-07-19T10:57:07.780Z,97061.21
2018-07-19T10:59:35.434Z,97054.58
2018-07-19T11:02:02.898Z,97055.11
2018-07-19T11:04:31.115Z,97052.80
2018-07-19T11:06:58.936Z,97056.85
2018-07-19T11:09:26.778Z,97047.59
2018-07-19T11:11:54.210Z,97044.22
2018-07-19T11:14:22.096Z,97044.88
2018-07-19T11:16:49.594Z,97040.94
2018-07-19T11:19:17.178Z,97041.84
2018-07-19T11:21:44.603Z,97033.14
2018-07-19T11:24:12.117Z,97036.33
2018-07-19T11:26:39.608Z,97034.31
2018-07-19T11:29:07.079Z,97035.41
2018-07-19T11:31:34.581Z,97034.78
2018-07-19T11:34:02.099Z,97028.26
2018-07-19T11:36:29.636Z,97028.66
2018-07-19T11:38:57.210Z,97029.51
2018-07-19T11:41:24.753Z,97021.58
2018-07-19T11:43:52.310Z,97020.27
2018-07-19T11:46:19.753Z,97014.17
2018-07-19T11:48:47.217Z,97022.64
2018-07-19T11:51:14.666Z,97016.12
2018-07-19T11:53:41.694Z,97013.13
2018-07-19T11:56:08.713Z,97011.84
2018-07-19T11:58:35.772Z,97011.44
2018-07-19T12:01:02.862Z,97003.77
2018-07-19T12:03:30.367Z,97004.44
2018-07-19T12:05:57.776Z,97000.86
2018-07-19T12:08:25.307Z,96993.98
2018-07-19T12:10:52.766Z,96995.54
2018-07-19T12:13:19.840Z,96990.37
2018-07-19T12:15:47.315Z,96990.56
2018-07-19T12:18:14.304Z,96983.31
2018-07-19T12:20:41.815Z,96977.25
2018-07-19T12:23:10.239Z,96977.60
2018-07-19T12:25:37.831Z,96980.62
2018-07-19T12:28:05.291Z,96987.09
2018-07-19T12:30:32.796Z,96976.52
2018-07-19T12:33:00.210Z,96976.88
2018-07-19T12:35:27.685Z,96971.12
2018-07-19T12:37:55.184Z,96965.78
2018-07-19T12:40:22.647Z,96968.73
2018-07-19T12:42:50.170Z,96966.98
2018-07-19T12:45:18.689Z,96963.48
2018-07-19T12:47:46.183Z,96961.77
2018-07-19T12:50:13.682Z,96964.43
2018-07-19T12:52:41.131Z,96957.28
2018-07-19T12:55:08.747Z,96953.36
2018-07-19T12:57:36.260Z,96954.61
2018-07-19T13:00:03.761Z,96953.21
2018-07-19T13:02:31.180Z,96948.05
2018-07-19T13:04:58.594Z,96953.22
2018-07-19T13:07:26.025Z,96943.54
2018-07-19T13:09:53.532Z,96940.80
2018-07-19T13:12:21.365Z,96941.05
2018-07-19T13:14:48.846Z,96940.49
2018-07-19T13:17:16.321Z,96942.37
2018-07-19T13:19:43.806Z,96943.30
2018-07-19T13:22:11.263Z,96940.96
2018-07-19T13:24:38.332Z,96936.34
2018-07-19T13:27:06.018Z,96933.52
2018-07-19T13:29:33.504Z,96926.86
2018-07-19T13:32:01.036Z,96929.61
2018-07-19T13:34:28.546Z,96923.53
2018-07-19T13:36:56.165Z,96926.05
2018-07-19T13:39:23.801Z,96928.70
2018-07-19T13:41:51.227Z,96931.65
2018-07-19T13:44:18.699Z,96926.77
2018-07-19T13:46:46.151Z,96918.75
2018-07-19T13:49:14.273Z,96916.77
2018-07-19T13:51:41.883Z,96918.03
2018-07-19T13:54:10.389Z,96919.39
2018-07-19T13:56:37.948Z,96914.45
2018-07-19T13:59:05.392Z,96911.04
2018-07-19T14:01:32.847Z,96907.20
2018-07-19T14:04:00.366Z,96908.92
2018-07-19T14:06:27.857Z,96905.52
2018-07-19T14:08:55.332Z,96905.83
2018-07-19T14:11:22.936Z,96902.22
2018-07-19T14:13:50.388Z,96897.70
2018-07-19T14:16:17.852Z,96904.57
2018-07-19T14:18:45.496Z,96899.17
2018-07-19T14:21:12.985Z,96901.58
2018-07-19T14:23:40.519Z,96890.40
2018-07-19T14:26:08.020Z,96888.19
2018-07-19T14:28:35.539Z,96885.33
2018-07-19T14:31:02.971Z,96880.47
2018-07-19T14:33:30.459Z,96879.31
2018-07-19T14:35:58.078Z,96881.96
2018-07-19T14:38:25.592Z,96879.80
2018-07-19T14:40:54.097Z,96870.99
2018-07-19T14:43:21.703Z,96871.67
2018-07-19T14:45:49.199Z,96865.65
2018-07-19T14:48:16.670Z,96870.78
2018-07-19T14:50:44.118Z,96869.55
2018-07-19T14:53:11.714Z,96861.89
2018-07-19T14:55:39.132Z,96863.73
2018-07-19T14:58:06.774Z,96859.41
2018-07-19T15:00:34.387Z,96853.87
2018-07-19T15:03:02.183Z,96853.27
2018-07-19T15:05:29.652Z,96855.87
2018-07-19T15:07:57.118Z,96855.28
2018-07-19T15:10:24.569Z,96853.42
2018-07-19T15:12:52.126Z,96852.93
2018-07-19T15:15:19.673Z,96843.02
2018-07-19T15:17:47.186Z,96839.02
2018-07-19T15:20:14.809Z,96840.25
2018-07-19T15:22:43.533Z,96844.89
2018-07-19T15:25:11.099Z,96836.70
2018-07-19T15:27:38.810Z,96840.21
2018-07-19T15:30:06.247Z,96836.61
2018-07-19T15:32:33.699Z,96838.28
2018-07-19T15:35:01.126Z,96831.77
2018-07-19T15:37:28.563Z,96833.48
2018-07-19T15:39:56.113Z,96832.26
2018-07-19T15:42:23.610Z,96826.16
2018-07-19T15:44:51.111Z,96829.05
2018-07-19T15:47:18.684Z,96829.29
2018-07-19T15:49:46.199Z,96824.77
2018-07-19T15:52:13.648Z,96821.11
2018-07-19T15:54:41.120Z,96819.57
2018-07-19T15:57:08.638Z,96815.25
2018-07-19T15:59:36.105Z,96821.49
2018-07-19T16:02:03.607Z,96817.36
2018-07-19T16:04:31.074Z,96814.86
2018-07-19T16:06:58.602Z,96817.80
2018-07-19T16:09:26.073Z,96808.08
2018-07-19T16:11:53.552Z,96812.47
2018-07-19T16:14:21.390Z,96809.80
2018-07-19T16:16:48.917Z,96811.92
2018-07-19T16:19:16.394Z,96811.88
2018-07-19T16:21:44.072Z,96810.70
2018-07-19T16:24:11.565Z,96806.31
2018-07-19T16:26:39.120Z,96807.94
2018-07-19T16:29:06.687Z,96805.83
2018-07-19T16:31:34.212Z,96801.33
2018-07-19T16:34:01.920Z,96805.98
2018-07-19T16:36:29.380Z,96806.74
2018-07-19T16:38:56.892Z,96801.47
2018-07-19T16:41:24.356Z,96804.36
2018-07-19T16:43:51.912Z,96805.50
2018-07-19T16:46:19.343Z,96804.22
2018-07-19T16:48:46.840Z,96812.58
2018-07-19T16:51:14.300Z,96812.22
2018-07-19T16:53:41.880Z,96809.63
2018-07-19T16:56:09.355Z,96808.02
2018-07-19T16:58:36.758Z,96805.98
2018-07-19T17:01:04.206Z,96811.27
2018-07-19T17:03:31.661Z,96805.73
2018-07-19T17:05:59.111Z,96807.28
2018-07-19T17:08:26.665Z,96811.91
2018-07-19T17:10:54.121Z,96810.93
2018-07-19T17:13:21.662Z,96813.88
2018-07-19T17:15:49.154Z,96818.89
2018-07-19T17:18:16.673Z,96817.48
2018-07-19T17:20:44.385Z,96819.47
2018-07-19T17:23:11.807Z,96819.70
2018-07-19T17:25:39.308Z,96826.85
2018-07-19T17:28:06.888Z,96826.58
2018-07-19T17:30:34.364Z,96830.02
2018-07-19T17:33:01.827Z,96829.50
2018-07-19T17:35:29.328Z,96829.20
2018-07-19T17:37:56.774Z,96823.15
2018-07-19T17:40:24.224Z,96831.97
2018-07-19T17:42:51.813Z,96827.89
2018-07-19T17:45:19.315Z,96835.55
2018-07-19T17:47:46.763Z,96833.10
2018-07-19T17:50:14.270Z,96834.89
2018-07-19T17:52:41.690Z,96835.63
2018-07-19T17:55:09.134Z,96833.08
2018-07-19T17:57:36.574Z,96831.44
2018-07-19T18:00:04.172Z,96838.80
2018-07-19T18:02:31.678Z,96838.23
2018-07-19T18:04:59.862Z,96841.62
2018-07-19T18:07:27.347Z,96837.95
2018-07-19T18:09:54.838Z,96843.02
2018-07-19T18:12:22.450Z,96847.52
2018-07-19T18:14:49.966Z,96847.14
2018-07-19T18:17:17.476Z,96842.93
2018-07-19T18:19:45.013Z,96841.98
2018-07-19T18:22:12.553Z,96841.58
2018-07-19T18:24:39.992Z,96843.13
2018-07-19T18:27:07.426Z,96847.05
2018-07-19T18:29:34.889Z,96843.72
2018-07-19T18:32:02.414Z,96851.56
2018-07-19T18:34:29.864Z,96850.44
2018-07-19T18:36:57.425Z,96852.39
2018-07-19T18:39:24.979Z,96854.70
2018-07-19T18:41:52.415Z,96860.50
2018-07-19T18:44:19.941Z,96865.92
2018-07-19T18:46:48.118Z,96862.53
2018-07-19T18:49:15.730Z,96865.27
2018-07-19T18:51:43.485Z,96871.91
2018-07-19T18:54:11.023Z,96868.80
2018-07-19T18:56:38.457Z,96874.98
2018-07-19T18:59:06.005Z,96877.27
2018-07-19T19:01:33.684Z,96869.05
2018-07-19T19:04:01.185Z,96866.06
2018-07-19T19:06:28.932Z,96877.47
2018-07-19T19:08:56.452Z,96884.22
2018-07-19T19:11:23.933Z,96885.08
2018-07-19T19:13:51.497Z,96878.30
2018-07-19T19:16:18.956Z,96885.28
2018-07-19T19:18:46.461Z,96885.36
2018-07-19T19:21:14.037Z,96877.59
2018-07-19T19:23:41.677Z,96882.78
2018-07-19T19:26:09.189Z,96881.64
2018-07-19T19:28:36.672Z,96888.05
2018-07-19T19:31:04.123Z,96889.30
2018-07-19T19:33:31.638Z,96893.28
2018-07-19T19:35:59.087Z,96894.88
2018-07-19T19:38:27.431Z,96893.37
2018-07-19T19:40:54.929Z,96896.67
2018-07-19T19:43:22.391Z,96892.73
2018-07-19T19:45:49.861Z,96891.28
2018-07-19T19:48:17.678Z,96892.87
2018-07-19T19:50:45.248Z,96893.26
2018-07-19T19:53:12.695Z,96890.36
2018-07-19T19:55:40.170Z,96901.84
2018-07-19T19:58:07.652Z,96899.47
2018-07-19T20:00:35.452Z,96895.75
2018-07-19T20:03:03.108Z,96904.88
2018-07-19T20:05:30.632Z,96906.77
2018-07-19T20:07:58.136Z,96908.13
2018-07-19T20:10:25.602Z,96910.70
2018-07-19T20:12:53.051Z,96906.89
2018-07-19T20:15:20.773Z,96908.77
2018-07-19T20:17:48.552Z,96901.41
2018-07-19T20:20:15.996Z,96909.20
2018-07-19T20:22:43.710Z,96916.12
2018-07-19T20:25:11.424Z,96910.63
2018-07-19T20:27:39.111Z,96915.52
2018-07-19T20:30:06.571Z,96911.48
2018-07-19T20:32:34.085Z,96909.91
2018-07-19T20:35:01.498Z,96910.22
2018-07-19T20:37:28.971Z,96911.45
2018-07-19T20:39:56.510Z,96905.34
2018-07-19T20:42:23.979Z,96905.25
2018-07-19T20:44:51.566Z,96902.58
2018-07-19T20:47:19.050Z,96906.19
2018-07-19T20:49:46.515Z,96910.22
2018-07-19T20:52:13.932Z,96905.66
2018-07-19T20:54:41.374Z,96910.44
2018-07-19T20:57:08.928Z,96903.49
2018-07-19T20:59:36.570Z,96906.10
2018-07-19T21:02:04.031Z,96914.14
2018-07-19T21:04:31.618Z,96915.58
2018-07-19T21:06:59.067Z,96918.38
2018-07-19T21:09:26.529Z,96917.95
2018-07-19T21:11:54.006Z,96921.98
2018-07-19T21:14:21.480Z,96920.42
2018-07-19T21:16:48.999Z,96918.38
2018-07-19T21:19:16.456Z,96926.45
2018-07-19T21:21:44.053Z,96926.22
2018-07-19T21:24:11.587Z,96926.02
2018-07-19T21:26:39.040Z,96929.54
2018-07-19T21:29:06.668Z,96928.42
2018-07-19T21:31:34.175Z,96927.86
2018-07-19T21:34:01.669Z,96932.53
2018-07-19T21:36:29.131Z,96933.36
2018-07-19T21:38:56.611Z,96932.84
2018-07-19T21:41:24.131Z,96933.36
2018-07-19T21:43:51.585Z,96937.67
2018-07-19T21:46:19.088Z,96948.84
2018-07-19T21:48:46.535Z,96943.65
2018-07-19T21:51:14.004Z,96944.36
2018-07-19T21:53:41.429Z,96939.70
2018-07-19T21:56:08.947Z,96942.30
2018-07-19T21:58:36.329Z,96940.03
2018-07-19T22:01:03.836Z,96943.84
2018-07-19T22:03:31.262Z,96949.30
2018-07-19T22:05:58.796Z,96944.63
2018-07-19T22:08:26.312Z,96953.32
2018-07-19T22:10:53.788Z,96951.23
2018-07-19T22:13:21.204Z,96951.45
2018-07-19T22:15:48.730Z,96954.63
2018-07-19T22:18:16.245Z,96951.61
2018-07-19T22:20:43.741Z,96948.70
2018-07-19T22:23:13.165Z,96949.70
2018-07-19T22:25:40.892Z,96950.70
2018-07-19T22:28:08.407Z,96957.12
2018-07-19T22:30:35.897Z,96958.69
2018-07-19T22:33:03.356Z,96967.33
2018-07-19T22:35:30.799Z,96959.04
2018-07-19T22:37:58.215Z,96964.84
2018-07-19T22:40:25.648Z,96960.70
2018-07-19T22:42:53.163Z,96964.44
2018-07-19T22:45:20.956Z,96967.34
2018-07-19T22:47:48.441Z,96965.03
2018-07-19T22:50:16.727Z,96963.08
2018-07-19T22:52:44.171Z,96970.08
2018-07-19T22:55:11.735Z,96964.09
2018-07-19T22:57:39.198Z,96967.17
2018-07-19T23:00:06.719Z,96966.64
2018-07-19T23:02:34.137Z,96967.05
2018-07-19T23:05:01.960Z,96965.48
2018-07-19T23:07:29.384Z,96961.28
2018-07-19T23:09:56.846Z,96957.95
2018-07-19T23:12:24.446Z,96955.03
2018-07-19T23:14:51.957Z,96958.31
2018-07-19T23:17:19.390Z,96952.29
2018-07-19T23:19:46.847Z,96962.69
2018-07-19T23:22:14.297Z,96962.33
2018-07-19T23:24:41.794Z,96963.31
2018-07-19T23:27:09.285Z,96964.20
2018-07-19T23:29:36.713Z,96968.20
2018-07-19T23:32:04.183Z,96965.11
2018-07-19T23:34:31.695Z,96965.45
2018-07-19T23:36:59.156Z,96964.99
2018-07-19T23:39:26.590Z,96963.22
2018-07-19T23:41:54.105Z,96966.26
2018-07-19T23:44:21.532Z,96962.77
2018-07-19T23:46:48.995Z,96960.48
2018-07-19T23:49:16.422Z,96958.27
2018-07-19T23:51:43.867Z,96957.89
2018-07-19T23:54:11.395Z,96961.04
2018-07-19T23:56:38.818Z,96960.69
2018-07-19T23:59:06.307Z,96955.30
